| Date | Time | Temp. (oF) | Dew Point (oF) | Rel. Hum. (%) | Press. (in.) | Wind Dir. | Wind Speed (mph) | Hourly Rainfall (in.) |
|
|---|---|---|---|---|---|---|---|---|---|
| 1 | 01/06 | 00:00 | 29 | 26 | 89 | 29.59 | WSW | 0 | 0.00 |
| 2 | 01/05 | 23:00 | 29 | 25 | 87 | 29.60 | SW | 1 | 0.00 |
| 3 | 01/05 | 22:00 | 31 | 27 | 86 | 29.60 | S | 1 | 0.00 |
| 4 | 01/05 | 21:00 | 31 | 27 | 88 | 29.61 | S | 3 | 0.00 |
| 5 | 01/05 | 20:00 | 31 | 28 | 89 | 29.61 | SSW | 4 | 0.00 |
| 6 | 01/05 | 19:00 | 31 | 27 | 88 | 29.60 | SSW | 3 | 0.00 |
| 7 | 01/05 | 18:00 | 31 | 27 | 86 | 29.58 | S | 3 | 0.00 |
| 8 | 01/05 | 17:00 | 32 | 27 | 82 | 29.57 | SSW | 4 | 0.00 |
| 9 | 01/05 | 16:00 | 33 | 28 | 82 | 29.57 | S | 5 | 0.00 |
| 10 | 01/05 | 15:00 | 33 | 28 | 83 | 29.57 | S | 7 | 0.01 |
| 11 | 01/05 | 14:00 | 32 | 28 | 87 | 29.58 | S | 5 | 0.00 |
| 12 | 01/05 | 13:00 | 32 | 28 | 85 | 29.62 | SSW | 5 | 0.01 |
| 13 | 01/05 | 12:00 | 30 | 25 | 84 | 29.65 | S | 3 | 0.00 |
| 14 | 01/05 | 11:00 | 29 | 25 | 85 | 29.69 | S | 10 | 0.00 |
| 15 | 01/05 | 10:00 | 29 | 21 | 73 | 29.75 | S | 8 | 0.00 |
| 16 | 01/05 | 09:00 | 29 | 20 | 70 | 29.81 | S | 7 | 0.00 |
| 17 | 01/05 | 08:00 | 27 | 19 | 73 | 29.83 | S | 5 | 0.00 |
| 18 | 01/05 | 07:00 | 23 | 18 | 83 | 29.87 | S | 2 | 0.00 |
| 19 | 01/05 | 06:00 | 20 | 16 | 85 | 29.88 | SSW | 1 | 0.00 |
| 20 | 01/05 | 05:00 | 18 | 13 | 84 | 29.89 | WNW | 0 | 0.00 |
| 21 | 01/05 | 04:00 | 20 | 15 | 81 | 29.92 | SSE | 1 | 0.00 |
| 22 | 01/05 | 03:00 | 19 | 14 | 84 | 29.95 | SSW | 0 | 0.00 |
| 23 | 01/05 | 02:00 | 20 | 15 | 82 | 29.99 | SW | 2 | 0.00 |
| 24 | 01/05 | 01:00 | 22 | 15 | 77 | 29.99 | NNW | 1 | 0.00 |